sensor_id;sensor_type;location;lat;lon;timestamp;P1;durP1;ratioP1;P2;durP2;ratioP2
46455;SDS011;64052;47.466;9.094;2023-02-08T00:01:57;20.08;;;13.20;;
46455;SDS011;64052;47.466;9.094;2023-02-08T00:06:59;17.55;;;12.00;;
46455;SDS011;64052;47.466;9.094;2023-02-08T00:12:00;17.52;;;12.50;;
46455;SDS011;64052;47.466;9.094;2023-02-08T00:17:02;14.88;;;13.02;;
46455;SDS011;64052;47.466;9.094;2023-02-08T00:22:03;17.27;;;12.80;;
46455;SDS011;64052;47.466;9.094;2023-02-08T00:27:05;22.15;;;12.85;;
46455;SDS011;64052;47.466;9.094;2023-02-08T00:32:07;17.48;;;12.07;;
46455;SDS011;64052;47.466;9.094;2023-02-08T00:37:09;18.10;;;12.10;;
46455;SDS011;64052;47.466;9.094;2023-02-08T00:42:10;20.80;;;13.57;;
46455;SDS011;64052;47.466;9.094;2023-02-08T00:47:13;15.25;;;10.90;;
46455;SDS011;64052;47.466;9.094;2023-02-08T00:52:14;14.50;;;11.52;;
46455;SDS011;64052;47.466;9.094;2023-02-08T00:57:17;19.58;;;13.20;;
46455;SDS011;64052;47.466;9.094;2023-02-08T01:02:18;17.95;;;12.25;;
46455;SDS011;64052;47.466;9.094;2023-02-08T01:07:20;19.13;;;12.13;;
46455;SDS011;64052;47.466;9.094;2023-02-08T01:12:22;14.15;;;11.27;;
46455;SDS011;64052;47.466;9.094;2023-02-08T01:17:23;15.43;;;10.80;;
46455;SDS011;64052;47.466;9.094;2023-02-08T01:22:27;19.52;;;12.57;;
46455;SDS011;64052;47.466;9.094;2023-02-08T01:27:29;17.20;;;12.68;;
46455;SDS011;64052;47.466;9.094;2023-02-08T01:32:30;16.10;;;11.95;;
46455;SDS011;64052;47.466;9.094;2023-02-08T01:37:32;18.02;;;13.05;;
46455;SDS011;64052;47.466;9.094;2023-02-08T01:42:33;18.60;;;12.80;;
46455;SDS011;64052;47.466;9.094;2023-02-08T01:47:34;17.42;;;13.05;;
46455;SDS011;64052;47.466;9.094;2023-02-08T01:52:37;16.90;;;12.82;;
46455;SDS011;64052;47.466;9.094;2023-02-08T01:57:39;18.98;;;12.32;;
46455;SDS011;64052;47.466;9.094;2023-02-08T02:02:44;21.50;;;12.05;;
46455;SDS011;64052;47.466;9.094;2023-02-08T02:07:47;18.83;;;11.77;;
46455;SDS011;64052;47.466;9.094;2023-02-08T02:12:49;19.67;;;11.35;;
46455;SDS011;64052;47.466;9.094;2023-02-08T02:17:52;17.52;;;11.63;;
46455;SDS011;64052;47.466;9.094;2023-02-08T02:34:13;19.93;;;12.23;;
46455;SDS011;64052;47.466;9.094;2023-02-08T02:39:33;16.50;;;12.18;;
46455;SDS011;64052;47.466;9.094;2023-02-08T02:50:03;18.90;;;13.55;;
46455;SDS011;64052;47.466;9.094;2023-02-08T02:55:09;18.90;;;14.38;;
46455;SDS011;64052;47.466;9.094;2023-02-08T03:00:18;17.73;;;12.77;;
46455;SDS011;64052;47.466;9.094;2023-02-08T03:05:23;19.08;;;12.15;;
46455;SDS011;64052;47.466;9.094;2023-02-08T03:15:58;19.88;;;13.60;;
46455;SDS011;64052;47.466;9.094;2023-02-08T03:21:04;18.73;;;12.20;;
46455;SDS011;64052;47.466;9.094;2023-02-08T03:31:28;16.83;;;11.90;;
46455;SDS011;64052;47.466;9.094;2023-02-08T03:37:17;17.38;;;13.10;;
46455;SDS011;64052;47.466;9.094;2023-02-08T03:42:05;20.52;;;11.60;;
46455;SDS011;64052;47.466;9.094;2023-02-08T03:47:16;20.60;;;13.40;;
46455;SDS011;64052;47.466;9.094;2023-02-08T03:52:22;23.10;;;13.30;;
46455;SDS011;64052;47.466;9.094;2023-02-08T03:57:28;17.67;;;12.75;;
46455;SDS011;64052;47.466;9.094;2023-02-08T04:02:33;19.52;;;12.05;;
46455;SDS011;64052;47.466;9.094;2023-02-08T04:07:40;20.13;;;12.48;;
46455;SDS011;64052;47.466;9.094;2023-02-08T04:12:42;18.30;;;11.85;;
46455;SDS011;64052;47.466;9.094;2023-02-08T04:17:43;18.77;;;13.70;;
46455;SDS011;64052;47.466;9.094;2023-02-08T04:22:45;19.02;;;13.18;;
46455;SDS011;64052;47.466;9.094;2023-02-08T04:27:46;21.88;;;11.43;;
46455;SDS011;64052;47.466;9.094;2023-02-08T04:32:48;18.00;;;11.60;;
46455;SDS011;64052;47.466;9.094;2023-02-08T04:37:49;18.48;;;12.75;;
46455;SDS011;64052;47.466;9.094;2023-02-08T04:42:51;19.02;;;13.02;;
46455;SDS011;64052;47.466;9.094;2023-02-08T04:47:52;21.20;;;12.88;;
46455;SDS011;64052;47.466;9.094;2023-02-08T04:52:54;16.77;;;12.23;;
46455;SDS011;64052;47.466;9.094;2023-02-08T04:57:56;19.38;;;12.88;;
46455;SDS011;64052;47.466;9.094;2023-02-08T05:02:58;19.75;;;12.85;;
46455;SDS011;64052;47.466;9.094;2023-02-08T05:07:59;21.73;;;12.45;;
46455;SDS011;64052;47.466;9.094;2023-02-08T05:13:01;17.83;;;12.35;;
46455;SDS011;64052;47.466;9.094;2023-02-08T05:18:02;17.63;;;12.60;;
46455;SDS011;64052;47.466;9.094;2023-02-08T05:23:04;19.15;;;12.98;;
46455;SDS011;64052;47.466;9.094;2023-02-08T05:28:06;20.00;;;12.50;;
46455;SDS011;64052;47.466;9.094;2023-02-08T05:33:07;20.95;;;13.88;;
46455;SDS011;64052;47.466;9.094;2023-02-08T05:38:09;19.58;;;12.80;;
46455;SDS011;64052;47.466;9.094;2023-02-08T05:43:10;19.70;;;12.52;;
46455;SDS011;64052;47.466;9.094;2023-02-08T05:48:12;22.85;;;13.90;;
46455;SDS011;64052;47.466;9.094;2023-02-08T05:53:13;20.45;;;13.90;;
46455;SDS011;64052;47.466;9.094;2023-02-08T05:58:15;17.33;;;11.05;;
46455;SDS011;64052;47.466;9.094;2023-02-08T06:03:17;16.70;;;12.18;;
46455;SDS011;64052;47.466;9.094;2023-02-08T06:08:19;15.80;;;12.50;;
46455;SDS011;64052;47.466;9.094;2023-02-08T06:13:20;18.50;;;12.70;;
46455;SDS011;64052;47.466;9.094;2023-02-08T06:18:22;22.35;;;12.75;;
46455;SDS011;64052;47.466;9.094;2023-02-08T06:23:24;20.15;;;13.15;;
46455;SDS011;64052;47.466;9.094;2023-02-08T06:28:25;16.92;;;11.27;;
46455;SDS011;64052;47.466;9.094;2023-02-08T06:33:27;17.83;;;12.27;;
46455;SDS011;64052;47.466;9.094;2023-02-08T06:38:29;21.27;;;13.13;;
46455;SDS011;64052;47.466;9.094;2023-02-08T06:43:30;19.40;;;12.23;;
46455;SDS011;64052;47.466;9.094;2023-02-08T06:48:32;17.52;;;12.82;;
46455;SDS011;64052;47.466;9.094;2023-02-08T06:53:33;18.73;;;13.82;;
46455;SDS011;64052;47.466;9.094;2023-02-08T06:58:35;16.70;;;10.73;;
46455;SDS011;64052;47.466;9.094;2023-02-08T07:03:36;18.10;;;11.45;;
46455;SDS011;64052;47.466;9.094;2023-02-08T07:08:38;13.30;;;10.65;;
46455;SDS011;64052;47.466;9.094;2023-02-08T07:13:39;15.80;;;10.75;;
46455;SDS011;64052;47.466;9.094;2023-02-08T07:18:41;18.23;;;12.32;;
46455;SDS011;64052;47.466;9.094;2023-02-08T07:23:42;21.38;;;11.60;;
46455;SDS011;64052;47.466;9.094;2023-02-08T07:28:44;20.95;;;13.23;;
46455;SDS011;64052;47.466;9.094;2023-02-08T07:33:46;19.63;;;11.73;;
46455;SDS011;64052;47.466;9.094;2023-02-08T07:38:47;20.10;;;13.60;;
46455;SDS011;64052;47.466;9.094;2023-02-08T07:43:49;18.65;;;11.80;;
46455;SDS011;64052;47.466;9.094;2023-02-08T07:48:50;18.02;;;13.30;;
46455;SDS011;64052;47.466;9.094;2023-02-08T07:53:52;21.23;;;13.82;;
46455;SDS011;64052;47.466;9.094;2023-02-08T07:58:54;19.13;;;13.27;;
46455;SDS011;64052;47.466;9.094;2023-02-08T08:03:55;19.20;;;11.93;;
46455;SDS011;64052;47.466;9.094;2023-02-08T08:08:57;16.57;;;12.40;;
46455;SDS011;64052;47.466;9.094;2023-02-08T08:13:59;16.42;;;11.77;;
46455;SDS011;64052;47.466;9.094;2023-02-08T08:19:00;21.15;;;13.45;;
46455;SDS011;64052;47.466;9.094;2023-02-08T08:24:02;19.58;;;11.68;;
46455;SDS011;64052;47.466;9.094;2023-02-08T08:29:03;21.30;;;12.90;;
46455;SDS011;64052;47.466;9.094;2023-02-08T08:34:05;15.13;;;11.05;;
46455;SDS011;64052;47.466;9.094;2023-02-08T08:39:07;19.60;;;11.65;;
46455;SDS011;64052;47.466;9.094;2023-02-08T08:44:08;18.27;;;11.93;;
46455;SDS011;64052;47.466;9.094;2023-02-08T08:49:10;15.50;;;11.15;;
46455;SDS011;64052;47.466;9.094;2023-02-08T08:54:11;18.30;;;11.65;;
46455;SDS011;64052;47.466;9.094;2023-02-08T08:59:13;18.35;;;11.93;;
46455;SDS011;64052;47.466;9.094;2023-02-08T09:04:15;17.77;;;10.48;;
46455;SDS011;64052;47.466;9.094;2023-02-08T09:09:16;18.48;;;11.60;;
46455;SDS011;64052;47.466;9.094;2023-02-08T09:14:19;16.55;;;12.02;;
46455;SDS011;64052;47.466;9.094;2023-02-08T09:19:20;18.50;;;11.88;;
46455;SDS011;64052;47.466;9.094;2023-02-08T09:24:22;17.00;;;12.00;;
46455;SDS011;64052;47.466;9.094;2023-02-08T09:29:24;18.17;;;11.90;;
46455;SDS011;64052;47.466;9.094;2023-02-08T09:34:26;21.50;;;13.30;;
46455;SDS011;64052;47.466;9.094;2023-02-08T09:39:28;16.98;;;11.98;;
46455;SDS011;64052;47.466;9.094;2023-02-08T09:49:47;17.83;;;12.18;;
46455;SDS011;64052;47.466;9.094;2023-02-08T09:55:00;17.13;;;12.25;;
46455;SDS011;64052;47.466;9.094;2023-02-08T10:00:15;16.77;;;11.65;;
46455;SDS011;64052;47.466;9.094;2023-02-08T10:05:24;21.30;;;12.07;;
46455;SDS011;64052;47.466;9.094;2023-02-08T10:15:32;20.00;;;13.75;;
46455;SDS011;64052;47.466;9.094;2023-02-08T10:31:29;20.08;;;12.13;;
46455;SDS011;64052;47.466;9.094;2023-02-08T10:36:52;21.23;;;13.30;;
46455;SDS011;64052;47.466;9.094;2023-02-08T10:41:54;19.40;;;13.32;;
46455;SDS011;64052;47.466;9.094;2023-02-08T10:47:06;20.55;;;13.38;;
46455;SDS011;64052;47.466;9.094;2023-02-08T10:52:16;21.85;;;13.65;;
46455;SDS011;64052;47.466;9.094;2023-02-08T10:57:22;22.40;;;14.40;;
46455;SDS011;64052;47.466;9.094;2023-02-08T11:02:29;25.92;;;13.98;;
46455;SDS011;64052;47.466;9.094;2023-02-08T11:07:33;24.85;;;14.05;;
46455;SDS011;64052;47.466;9.094;2023-02-08T11:12:37;21.15;;;15.18;;
46455;SDS011;64052;47.466;9.094;2023-02-08T11:17:41;21.77;;;12.98;;
46455;SDS011;64052;47.466;9.094;2023-02-08T11:22:43;20.98;;;13.65;;
46455;SDS011;64052;47.466;9.094;2023-02-08T11:27:49;21.08;;;13.02;;
46455;SDS011;64052;47.466;9.094;2023-02-08T11:38:16;20.73;;;13.93;;
46455;SDS011;64052;47.466;9.094;2023-02-08T11:43:26;22.85;;;13.52;;
46455;SDS011;64052;47.466;9.094;2023-02-08T11:53:46;24.65;;;14.50;;
46455;SDS011;64052;47.466;9.094;2023-02-08T12:04:03;20.75;;;13.38;;
46455;SDS011;64052;47.466;9.094;2023-02-08T12:41:09;19.35;;;12.32;;
46455;SDS011;64052;47.466;9.094;2023-02-08T12:56:37;19.00;;;12.65;;
46455;SDS011;64052;47.466;9.094;2023-02-08T13:01:45;20.60;;;14.25;;
46455;SDS011;64052;47.466;9.094;2023-02-08T13:07:25;22.35;;;13.35;;
46455;SDS011;64052;47.466;9.094;2023-02-08T13:12:29;21.92;;;12.40;;
46455;SDS011;64052;47.466;9.094;2023-02-08T13:17:40;18.20;;;12.65;;
46455;SDS011;64052;47.466;9.094;2023-02-08T13:22:47;23.10;;;11.88;;
46455;SDS011;64052;47.466;9.094;2023-02-08T13:27:50;17.00;;;11.77;;
46455;SDS011;64052;47.466;9.094;2023-02-08T13:32:52;17.30;;;12.57;;
46455;SDS011;64052;47.466;9.094;2023-02-08T13:38:03;16.83;;;11.80;;
46455;SDS011;64052;47.466;9.094;2023-02-08T13:43:15;18.77;;;13.65;;
46455;SDS011;64052;47.466;9.094;2023-02-08T13:48:41;20.90;;;11.40;;
46455;SDS011;64052;47.466;9.094;2023-02-08T13:58:59;18.25;;;14.07;;
46455;SDS011;64052;47.466;9.094;2023-02-08T14:14:27;18.83;;;12.85;;
46455;SDS011;64052;47.466;9.094;2023-02-08T14:19:35;22.43;;;14.30;;
46455;SDS011;64052;47.466;9.094;2023-02-08T14:24:49;20.92;;;12.77;;
46455;SDS011;64052;47.466;9.094;2023-02-08T14:35:20;18.67;;;11.55;;
46455;SDS011;64052;47.466;9.094;2023-02-08T14:45:30;21.48;;;14.02;;
46455;SDS011;64052;47.466;9.094;2023-02-08T14:50:41;16.25;;;12.10;;
46455;SDS011;64052;47.466;9.094;2023-02-08T15:06:48;19.58;;;13.98;;
46455;SDS011;64052;47.466;9.094;2023-02-08T15:12:24;21.05;;;13.57;;
46455;SDS011;64052;47.466;9.094;2023-02-08T15:22:32;21.48;;;13.63;;
46455;SDS011;64052;47.466;9.094;2023-02-08T15:27:36;23.98;;;14.40;;
46455;SDS011;64052;47.466;9.094;2023-02-08T15:32:38;22.02;;;13.48;;
46455;SDS011;64052;47.466;9.094;2023-02-08T15:37:42;23.25;;;13.88;;
46455;SDS011;64052;47.466;9.094;2023-02-08T15:42:43;21.92;;;14.20;;
46455;SDS011;64052;47.466;9.094;2023-02-08T15:47:45;20.38;;;12.90;;
46455;SDS011;64052;47.466;9.094;2023-02-08T15:52:47;22.20;;;13.98;;
46455;SDS011;64052;47.466;9.094;2023-02-08T16:03:17;21.58;;;14.30;;
46455;SDS011;64052;47.466;9.094;2023-02-08T16:08:31;19.35;;;13.63;;
46455;SDS011;64052;47.466;9.094;2023-02-08T16:13:36;20.27;;;14.20;;
46455;SDS011;64052;47.466;9.094;2023-02-08T16:18:40;20.25;;;12.52;;
46455;SDS011;64052;47.466;9.094;2023-02-08T16:23:57;24.48;;;15.30;;
46455;SDS011;64052;47.466;9.094;2023-02-08T16:29:01;22.88;;;14.90;;
46455;SDS011;64052;47.466;9.094;2023-02-08T16:34:06;24.52;;;13.75;;
46455;SDS011;64052;47.466;9.094;2023-02-08T16:44:26;20.98;;;13.73;;
46455;SDS011;64052;47.466;9.094;2023-02-08T16:49:33;22.92;;;13.95;;
46455;SDS011;64052;47.466;9.094;2023-02-08T16:54:35;22.00;;;14.30;;
46455;SDS011;64052;47.466;9.094;2023-02-08T16:59:36;24.92;;;14.40;;
46455;SDS011;64052;47.466;9.094;2023-02-08T17:04:38;22.05;;;14.05;;
46455;SDS011;64052;47.466;9.094;2023-02-08T17:09:40;23.15;;;13.65;;
46455;SDS011;64052;47.466;9.094;2023-02-08T17:14:41;29.02;;;15.45;;
46455;SDS011;64052;47.466;9.094;2023-02-08T17:19:43;22.83;;;15.18;;
46455;SDS011;64052;47.466;9.094;2023-02-08T17:24:44;20.45;;;14.07;;
46455;SDS011;64052;47.466;9.094;2023-02-08T17:29:46;22.85;;;14.27;;
46455;SDS011;64052;47.466;9.094;2023-02-08T17:34:47;27.00;;;16.27;;
46455;SDS011;64052;47.466;9.094;2023-02-08T17:39:49;28.70;;;15.52;;
46455;SDS011;64052;47.466;9.094;2023-02-08T17:44:50;25.10;;;15.15;;
46455;SDS011;64052;47.466;9.094;2023-02-08T17:49:52;20.70;;;15.05;;
46455;SDS011;64052;47.466;9.094;2023-02-08T17:54:53;23.02;;;15.52;;
46455;SDS011;64052;47.466;9.094;2023-02-08T17:59:55;27.45;;;15.27;;
46455;SDS011;64052;47.466;9.094;2023-02-08T18:04:56;28.17;;;16.05;;
46455;SDS011;64052;47.466;9.094;2023-02-08T18:09:58;21.02;;;14.20;;
46455;SDS011;64052;47.466;9.094;2023-02-08T18:14:59;23.65;;;16.42;;
46455;SDS011;64052;47.466;9.094;2023-02-08T18:20:01;27.02;;;17.30;;
46455;SDS011;64052;47.466;9.094;2023-02-08T18:25:03;25.13;;;15.98;;
46455;SDS011;64052;47.466;9.094;2023-02-08T18:30:05;24.00;;;14.75;;
46455;SDS011;64052;47.466;9.094;2023-02-08T18:35:07;28.83;;;15.40;;
46455;SDS011;64052;47.466;9.094;2023-02-08T18:40:09;25.35;;;16.27;;
46455;SDS011;64052;47.466;9.094;2023-02-08T18:45:11;25.50;;;15.52;;
46455;SDS011;64052;47.466;9.094;2023-02-08T18:50:13;23.23;;;15.05;;
46455;SDS011;64052;47.466;9.094;2023-02-08T18:55:14;26.52;;;15.05;;
46455;SDS011;64052;47.466;9.094;2023-02-08T19:00:16;26.38;;;15.27;;
46455;SDS011;64052;47.466;9.094;2023-02-08T19:05:18;29.23;;;17.73;;
46455;SDS011;64052;47.466;9.094;2023-02-08T19:10:19;27.08;;;16.67;;
46455;SDS011;64052;47.466;9.094;2023-02-08T19:15:21;21.50;;;15.45;;
46455;SDS011;64052;47.466;9.094;2023-02-08T19:20:23;23.95;;;16.20;;
46455;SDS011;64052;47.466;9.094;2023-02-08T19:25:24;23.88;;;15.68;;
46455;SDS011;64052;47.466;9.094;2023-02-08T19:30:26;22.17;;;14.23;;
46455;SDS011;64052;47.466;9.094;2023-02-08T19:35:27;22.88;;;16.23;;
46455;SDS011;64052;47.466;9.094;2023-02-08T19:40:29;26.90;;;14.73;;
46455;SDS011;64052;47.466;9.094;2023-02-08T19:45:31;24.50;;;15.00;;
46455;SDS011;64052;47.466;9.094;2023-02-08T19:50:35;22.83;;;15.45;;
46455;SDS011;64052;47.466;9.094;2023-02-08T19:55:36;24.88;;;16.10;;
46455;SDS011;64052;47.466;9.094;2023-02-08T20:00:38;23.65;;;16.15;;
46455;SDS011;64052;47.466;9.094;2023-02-08T20:05:40;23.38;;;15.63;;
46455;SDS011;64052;47.466;9.094;2023-02-08T20:10:43;25.77;;;15.57;;
46455;SDS011;64052;47.466;9.094;2023-02-08T20:15:47;26.42;;;15.80;;
46455;SDS011;64052;47.466;9.094;2023-02-08T20:20:57;27.77;;;15.73;;
46455;SDS011;64052;47.466;9.094;2023-02-08T20:26:06;23.60;;;15.18;;
46455;SDS011;64052;47.466;9.094;2023-02-08T20:31:17;25.17;;;15.40;;
46455;SDS011;64052;47.466;9.094;2023-02-08T20:36:28;26.55;;;16.35;;
46455;SDS011;64052;47.466;9.094;2023-02-08T20:41:34;23.95;;;15.10;;
46455;SDS011;64052;47.466;9.094;2023-02-08T20:46:36;27.00;;;14.85;;
46455;SDS011;64052;47.466;9.094;2023-02-08T20:51:37;32.63;;;16.77;;
46455;SDS011;64052;47.466;9.094;2023-02-08T20:56:39;25.90;;;14.98;;
46455;SDS011;64052;47.466;9.094;2023-02-08T21:01:41;20.73;;;14.35;;
46455;SDS011;64052;47.466;9.094;2023-02-08T21:06:43;24.20;;;16.38;;
46455;SDS011;64052;47.466;9.094;2023-02-08T21:11:45;23.60;;;15.80;;
46455;SDS011;64052;47.466;9.094;2023-02-08T21:16:55;22.73;;;14.52;;
46455;SDS011;64052;47.466;9.094;2023-02-08T21:21:59;21.55;;;14.20;;
46455;SDS011;64052;47.466;9.094;2023-02-08T21:27:01;23.03;;;15.67;;
46455;SDS011;64052;47.466;9.094;2023-02-08T21:32:03;23.30;;;14.68;;
46455;SDS011;64052;47.466;9.094;2023-02-08T21:37:04;24.30;;;15.77;;
46455;SDS011;64052;47.466;9.094;2023-02-08T21:42:06;23.60;;;14.60;;
46455;SDS011;64052;47.466;9.094;2023-02-08T21:47:07;24.73;;;16.27;;
46455;SDS011;64052;47.466;9.094;2023-02-08T21:52:10;23.97;;;15.13;;
46455;SDS011;64052;47.466;9.094;2023-02-08T21:57:19;22.93;;;15.07;;
46455;SDS011;64052;47.466;9.094;2023-02-08T22:02:22;23.25;;;15.65;;
46455;SDS011;64052;47.466;9.094;2023-02-08T22:07:25;28.27;;;15.37;;
46455;SDS011;64052;47.466;9.094;2023-02-08T22:12:28;21.63;;;14.53;;
46455;SDS011;64052;47.466;9.094;2023-02-08T22:17:29;22.43;;;14.63;;
46455;SDS011;64052;47.466;9.094;2023-02-08T22:22:31;26.10;;;14.30;;
46455;SDS011;64052;47.466;9.094;2023-02-08T22:27:33;21.60;;;13.03;;
46455;SDS011;64052;47.466;9.094;2023-02-08T22:32:37;24.87;;;16.10;;
46455;SDS011;64052;47.466;9.094;2023-02-08T22:37:40;23.47;;;14.03;;
46455;SDS011;64052;47.466;9.094;2023-02-08T22:42:42;22.17;;;16.43;;
46455;SDS011;64052;47.466;9.094;2023-02-08T22:47:43;20.37;;;15.30;;
46455;SDS011;64052;47.466;9.094;2023-02-08T22:52:46;24.10;;;15.93;;
46455;SDS011;64052;47.466;9.094;2023-02-08T22:57:48;25.23;;;13.87;;
46455;SDS011;64052;47.466;9.094;2023-02-08T23:02:49;21.60;;;13.23;;
46455;SDS011;64052;47.466;9.094;2023-02-08T23:07:51;23.67;;;13.87;;
46455;SDS011;64052;47.466;9.094;2023-02-08T23:12:52;24.43;;;14.23;;
46455;SDS011;64052;47.466;9.094;2023-02-08T23:17:54;21.50;;;13.77;;
46455;SDS011;64052;47.466;9.094;2023-02-08T23:22:56;22.23;;;13.73;;
46455;SDS011;64052;47.466;9.094;2023-02-08T23:27:57;21.57;;;12.20;;
46455;SDS011;64052;47.466;9.094;2023-02-08T23:32:59;23.03;;;13.20;;
46455;SDS011;64052;47.466;9.094;2023-02-08T23:38:01;18.50;;;13.33;;
46455;SDS011;64052;47.466;9.094;2023-02-08T23:43:02;20.30;;;14.20;;
46455;SDS011;64052;47.466;9.094;2023-02-08T23:48:04;17.83;;;12.97;;
46455;SDS011;64052;47.466;9.094;2023-02-08T23:53:05;17.53;;;11.53;;
46455;SDS011;64052;47.466;9.094;2023-02-08T23:58:07;18.90;;;14.97;;
